sensor_id;sensor_type;location;lat;lon;timestamp;P1;durP1;ratioP1;P2;durP2;ratioP2
30707;SDS011;17458;48.958;8.284;2022-10-31T00:00:24;14.07;;;5.60;;
30707;SDS011;17458;48.958;8.284;2022-10-31T00:03:07;13.85;;;4.35;;
30707;SDS011;17458;48.958;8.284;2022-10-31T00:05:51;9.15;;;4.28;;
30707;SDS011;17458;48.958;8.284;2022-10-31T00:08:36;10.77;;;4.97;;
30707;SDS011;17458;48.958;8.284;2022-10-31T00:11:21;7.25;;;4.75;;
30707;SDS011;17458;48.958;8.284;2022-10-31T00:14:06;7.60;;;3.72;;
30707;SDS011;17458;48.958;8.284;2022-10-31T00:16:50;8.85;;;4.63;;
30707;SDS011;17458;48.958;8.284;2022-10-31T00:19:34;7.57;;;4.22;;
30707;SDS011;17458;48.958;8.284;2022-10-31T00:22:18;7.72;;;5.25;;
30707;SDS011;17458;48.958;8.284;2022-10-31T00:25:02;9.00;;;5.32;;
30707;SDS011;17458;48.958;8.284;2022-10-31T00:27:46;13.63;;;5.20;;
30707;SDS011;17458;48.958;8.284;2022-10-31T00:30:31;9.02;;;4.85;;
30707;SDS011;17458;48.958;8.284;2022-10-31T00:33:15;9.15;;;5.38;;
30707;SDS011;17458;48.958;8.284;2022-10-31T00:36:00;14.10;;;6.35;;
30707;SDS011;17458;48.958;8.284;2022-10-31T00:38:45;10.48;;;5.75;;
30707;SDS011;17458;48.958;8.284;2022-10-31T00:41:30;12.05;;;6.00;;
30707;SDS011;17458;48.958;8.284;2022-10-31T00:44:14;7.53;;;4.80;;
30707;SDS011;17458;48.958;8.284;2022-10-31T00:46:58;13.40;;;4.90;;
30707;SDS011;17458;48.958;8.284;2022-10-31T00:49:42;11.50;;;4.50;;
30707;SDS011;17458;48.958;8.284;2022-10-31T00:52:34;10.60;;;4.55;;
30707;SDS011;17458;48.958;8.284;2022-10-31T00:55:27;6.05;;;4.50;;
30707;SDS011;17458;48.958;8.284;2022-10-31T00:58:11;5.57;;;4.75;;
30707;SDS011;17458;48.958;8.284;2022-10-31T01:00:55;6.82;;;4.93;;
30707;SDS011;17458;48.958;8.284;2022-10-31T01:03:40;9.55;;;4.90;;
30707;SDS011;17458;48.958;8.284;2022-10-31T01:06:28;11.65;;;6.20;;
30707;SDS011;17458;48.958;8.284;2022-10-31T01:09:14;10.07;;;6.68;;
30707;SDS011;17458;48.958;8.284;2022-10-31T01:12:01;14.38;;;5.93;;
30707;SDS011;17458;48.958;8.284;2022-10-31T01:14:48;6.90;;;5.30;;
30707;SDS011;17458;48.958;8.284;2022-10-31T01:17:35;10.32;;;5.65;;
30707;SDS011;17458;48.958;8.284;2022-10-31T01:20:20;10.80;;;5.28;;
30707;SDS011;17458;48.958;8.284;2022-10-31T01:23:04;19.27;;;7.53;;
30707;SDS011;17458;48.958;8.284;2022-10-31T01:25:58;17.65;;;8.55;;
30707;SDS011;17458;48.958;8.284;2022-10-31T01:28:48;12.80;;;5.93;;
30707;SDS011;17458;48.958;8.284;2022-10-31T01:31:34;22.23;;;7.53;;
30707;SDS011;17458;48.958;8.284;2022-10-31T01:34:21;25.08;;;10.73;;
30707;SDS011;17458;48.958;8.284;2022-10-31T01:37:05;9.50;;;5.95;;
30707;SDS011;17458;48.958;8.284;2022-10-31T01:39:56;17.83;;;8.85;;
30707;SDS011;17458;48.958;8.284;2022-10-31T01:42:40;12.25;;;5.55;;
30707;SDS011;17458;48.958;8.284;2022-10-31T01:45:27;17.67;;;6.70;;
30707;SDS011;17458;48.958;8.284;2022-10-31T01:48:12;15.15;;;7.30;;
30707;SDS011;17458;48.958;8.284;2022-10-31T01:50:59;17.08;;;6.22;;
30707;SDS011;17458;48.958;8.284;2022-10-31T01:53:43;15.73;;;6.65;;
30707;SDS011;17458;48.958;8.284;2022-10-31T01:56:29;12.32;;;5.70;;
30707;SDS011;17458;48.958;8.284;2022-10-31T01:59:15;13.55;;;5.82;;
30707;SDS011;17458;48.958;8.284;2022-10-31T02:02:03;11.55;;;3.75;;
30707;SDS011;17458;48.958;8.284;2022-10-31T02:04:47;9.88;;;4.93;;
30707;SDS011;17458;48.958;8.284;2022-10-31T02:07:39;18.17;;;6.88;;
30707;SDS011;17458;48.958;8.284;2022-10-31T02:10:30;11.68;;;5.30;;
30707;SDS011;17458;48.958;8.284;2022-10-31T02:13:16;14.45;;;4.80;;
30707;SDS011;17458;48.958;8.284;2022-10-31T02:16:05;9.43;;;5.63;;
30707;SDS011;17458;48.958;8.284;2022-10-31T02:18:51;9.30;;;4.63;;
30707;SDS011;17458;48.958;8.284;2022-10-31T02:34:14;12.18;;;6.07;;
30707;SDS011;17458;48.958;8.284;2022-10-31T02:37:11;8.35;;;4.45;;
30707;SDS011;17458;48.958;8.284;2022-10-31T02:40:17;6.20;;;4.30;;
30707;SDS011;17458;48.958;8.284;2022-10-31T02:46:55;6.00;;;4.22;;
30707;SDS011;17458;48.958;8.284;2022-10-31T02:49:45;14.80;;;4.38;;
30707;SDS011;17458;48.958;8.284;2022-10-31T02:52:35;8.95;;;4.70;;
30707;SDS011;17458;48.958;8.284;2022-10-31T02:58:11;8.20;;;5.30;;
30707;SDS011;17458;48.958;8.284;2022-10-31T03:04:07;9.80;;;5.18;;
30707;SDS011;17458;48.958;8.284;2022-10-31T03:12:57;7.93;;;4.22;;
30707;SDS011;17458;48.958;8.284;2022-10-31T03:22:04;16.35;;;4.88;;
30707;SDS011;17458;48.958;8.284;2022-10-31T03:24:56;10.57;;;4.97;;
30707;SDS011;17458;48.958;8.284;2022-10-31T03:27:41;8.18;;;5.80;;
30707;SDS011;17458;48.958;8.284;2022-10-31T03:30:30;14.00;;;5.10;;
30707;SDS011;17458;48.958;8.284;2022-10-31T03:33:21;9.65;;;4.70;;
30707;SDS011;17458;48.958;8.284;2022-10-31T03:36:14;8.95;;;4.22;;
30707;SDS011;17458;48.958;8.284;2022-10-31T03:39:02;10.65;;;4.88;;
30707;SDS011;17458;48.958;8.284;2022-10-31T03:42:05;11.20;;;4.22;;
30707;SDS011;17458;48.958;8.284;2022-10-31T03:45:04;8.90;;;4.72;;
30707;SDS011;17458;48.958;8.284;2022-10-31T03:47:54;10.48;;;5.00;;
30707;SDS011;17458;48.958;8.284;2022-10-31T03:51:13;13.27;;;4.57;;
30707;SDS011;17458;48.958;8.284;2022-10-31T03:56:56;10.80;;;5.28;;
30707;SDS011;17458;48.958;8.284;2022-10-31T03:59:51;12.93;;;5.00;;
30707;SDS011;17458;48.958;8.284;2022-10-31T04:02:39;5.75;;;4.10;;
30707;SDS011;17458;48.958;8.284;2022-10-31T04:05:27;13.27;;;3.97;;
30707;SDS011;17458;48.958;8.284;2022-10-31T04:08:17;7.40;;;3.95;;
30707;SDS011;17458;48.958;8.284;2022-10-31T04:11:05;8.75;;;4.53;;
30707;SDS011;17458;48.958;8.284;2022-10-31T04:13:56;11.75;;;4.40;;
30707;SDS011;17458;48.958;8.284;2022-10-31T04:16:44;8.30;;;4.40;;
30707;SDS011;17458;48.958;8.284;2022-10-31T04:19:29;15.20;;;4.30;;
30707;SDS011;17458;48.958;8.284;2022-10-31T04:22:13;8.55;;;4.63;;
30707;SDS011;17458;48.958;8.284;2022-10-31T04:24:57;8.30;;;4.07;;
30707;SDS011;17458;48.958;8.284;2022-10-31T04:27:41;8.43;;;4.75;;
30707;SDS011;17458;48.958;8.284;2022-10-31T04:30:26;18.02;;;5.18;;
30707;SDS011;17458;48.958;8.284;2022-10-31T04:33:12;16.23;;;4.47;;
30707;SDS011;17458;48.958;8.284;2022-10-31T04:35:56;5.63;;;3.78;;
30707;SDS011;17458;48.958;8.284;2022-10-31T04:38:40;12.63;;;4.63;;
30707;SDS011;17458;48.958;8.284;2022-10-31T04:41:34;5.85;;;4.35;;
30707;SDS011;17458;48.958;8.284;2022-10-31T04:44:27;8.07;;;4.57;;
30707;SDS011;17458;48.958;8.284;2022-10-31T04:47:18;14.40;;;4.82;;
30707;SDS011;17458;48.958;8.284;2022-10-31T04:50:02;9.25;;;4.72;;
30707;SDS011;17458;48.958;8.284;2022-10-31T04:52:47;6.93;;;4.53;;
30707;SDS011;17458;48.958;8.284;2022-10-31T04:55:35;6.40;;;4.65;;
30707;SDS011;17458;48.958;8.284;2022-10-31T04:58:36;11.98;;;4.35;;
30707;SDS011;17458;48.958;8.284;2022-10-31T05:01:24;11.27;;;3.90;;
30707;SDS011;17458;48.958;8.284;2022-10-31T05:04:08;5.30;;;3.85;;
30707;SDS011;17458;48.958;8.284;2022-10-31T05:06:52;9.82;;;3.97;;
30707;SDS011;17458;48.958;8.284;2022-10-31T05:09:36;11.77;;;4.20;;
30707;SDS011;17458;48.958;8.284;2022-10-31T05:12:21;5.43;;;3.65;;
30707;SDS011;17458;48.958;8.284;2022-10-31T05:15:25;10.35;;;4.07;;
30707;SDS011;17458;48.958;8.284;2022-10-31T05:18:10;7.55;;;4.65;;
30707;SDS011;17458;48.958;8.284;2022-10-31T05:21:13;10.73;;;4.07;;
30707;SDS011;17458;48.958;8.284;2022-10-31T05:24:08;6.85;;;4.00;;
30707;SDS011;17458;48.958;8.284;2022-10-31T05:26:53;9.15;;;4.70;;
30707;SDS011;17458;48.958;8.284;2022-10-31T05:29:37;19.52;;;4.80;;
30707;SDS011;17458;48.958;8.284;2022-10-31T05:32:21;6.05;;;4.43;;
30707;SDS011;17458;48.958;8.284;2022-10-31T05:35:40;9.77;;;6.15;;
30707;SDS011;17458;48.958;8.284;2022-10-31T05:38:59;15.15;;;6.13;;
30707;SDS011;17458;48.958;8.284;2022-10-31T05:41:49;11.73;;;5.45;;
30707;SDS011;17458;48.958;8.284;2022-10-31T05:44:39;9.20;;;5.28;;
30707;SDS011;17458;48.958;8.284;2022-10-31T05:47:26;6.78;;;4.47;;
30707;SDS011;17458;48.958;8.284;2022-10-31T05:50:31;10.07;;;4.28;;
30707;SDS011;17458;48.958;8.284;2022-10-31T05:53:28;6.47;;;4.43;;
30707;SDS011;17458;48.958;8.284;2022-10-31T05:56:12;10.77;;;4.85;;
30707;SDS011;17458;48.958;8.284;2022-10-31T05:58:56;11.40;;;4.40;;
30707;SDS011;17458;48.958;8.284;2022-10-31T06:01:40;7.78;;;5.55;;
30707;SDS011;17458;48.958;8.284;2022-10-31T06:04:34;12.30;;;4.97;;
30707;SDS011;17458;48.958;8.284;2022-10-31T06:07:19;9.45;;;5.80;;
30707;SDS011;17458;48.958;8.284;2022-10-31T06:10:04;13.98;;;6.38;;
30707;SDS011;17458;48.958;8.284;2022-10-31T06:12:50;13.88;;;6.18;;
30707;SDS011;17458;48.958;8.284;2022-10-31T06:15:40;11.70;;;6.30;;
30707;SDS011;17458;48.958;8.284;2022-10-31T06:18:26;8.43;;;5.05;;
30707;SDS011;17458;48.958;8.284;2022-10-31T06:21:11;8.52;;;4.43;;
30707;SDS011;17458;48.958;8.284;2022-10-31T06:23:56;11.82;;;5.13;;
30707;SDS011;17458;48.958;8.284;2022-10-31T06:27:06;4.53;;;4.00;;
30707;SDS011;17458;48.958;8.284;2022-10-31T06:29:51;11.82;;;3.70;;
30707;SDS011;17458;48.958;8.284;2022-10-31T06:32:54;4.47;;;3.83;;
30707;SDS011;17458;48.958;8.284;2022-10-31T06:35:38;6.38;;;3.92;;
30707;SDS011;17458;48.958;8.284;2022-10-31T06:38:22;9.10;;;4.43;;
30707;SDS011;17458;48.958;8.284;2022-10-31T06:41:06;11.65;;;4.65;;
30707;SDS011;17458;48.958;8.284;2022-10-31T06:43:59;4.75;;;4.03;;
30707;SDS011;17458;48.958;8.284;2022-10-31T06:47:02;8.90;;;4.18;;
30707;SDS011;17458;48.958;8.284;2022-10-31T06:50:10;11.10;;;4.32;;
30707;SDS011;17458;48.958;8.284;2022-10-31T06:52:55;17.50;;;8.45;;
30707;SDS011;17458;48.958;8.284;2022-10-31T06:55:41;20.65;;;7.68;;
30707;SDS011;17458;48.958;8.284;2022-10-31T06:58:26;18.17;;;7.97;;
30707;SDS011;17458;48.958;8.284;2022-10-31T07:01:14;18.67;;;6.15;;
30707;SDS011;17458;48.958;8.284;2022-10-31T07:03:58;13.00;;;5.45;;
30707;SDS011;17458;48.958;8.284;2022-10-31T07:06:42;10.70;;;6.18;;
30707;SDS011;17458;48.958;8.284;2022-10-31T07:09:26;13.98;;;7.28;;
30707;SDS011;17458;48.958;8.284;2022-10-31T07:12:11;17.35;;;6.93;;
30707;SDS011;17458;48.958;8.284;2022-10-31T07:15:00;15.85;;;7.45;;
30707;SDS011;17458;48.958;8.284;2022-10-31T07:17:44;15.70;;;6.75;;
30707;SDS011;17458;48.958;8.284;2022-10-31T07:20:29;11.70;;;6.45;;
30707;SDS011;17458;48.958;8.284;2022-10-31T07:23:15;17.98;;;5.85;;
30707;SDS011;17458;48.958;8.284;2022-10-31T07:26:04;14.82;;;7.03;;
30707;SDS011;17458;48.958;8.284;2022-10-31T07:28:57;12.95;;;7.10;;
30707;SDS011;17458;48.958;8.284;2022-10-31T07:31:44;11.55;;;5.93;;
30707;SDS011;17458;48.958;8.284;2022-10-31T07:34:36;11.45;;;6.43;;
30707;SDS011;17458;48.958;8.284;2022-10-31T07:37:38;21.63;;;6.68;;
30707;SDS011;17458;48.958;8.284;2022-10-31T07:40:23;11.27;;;5.25;;
30707;SDS011;17458;48.958;8.284;2022-10-31T07:43:10;12.32;;;5.30;;
30707;SDS011;17458;48.958;8.284;2022-10-31T07:46:24;8.80;;;5.82;;
30707;SDS011;17458;48.958;8.284;2022-10-31T07:49:27;11.70;;;5.30;;
30707;SDS011;17458;48.958;8.284;2022-10-31T07:52:37;8.27;;;5.68;;
30707;SDS011;17458;48.958;8.284;2022-10-31T07:55:42;6.38;;;4.60;;
30707;SDS011;17458;48.958;8.284;2022-10-31T07:58:27;13.82;;;5.90;;
30707;SDS011;17458;48.958;8.284;2022-10-31T08:01:11;10.35;;;5.53;;
30707;SDS011;17458;48.958;8.284;2022-10-31T08:04:04;8.45;;;5.78;;
30707;SDS011;17458;48.958;8.284;2022-10-31T08:07:07;9.70;;;5.03;;
30707;SDS011;17458;48.958;8.284;2022-10-31T08:09:55;11.63;;;4.68;;
30707;SDS011;17458;48.958;8.284;2022-10-31T08:12:43;28.13;;;4.72;;
30707;SDS011;17458;48.958;8.284;2022-10-31T08:15:28;11.13;;;4.75;;
30707;SDS011;17458;48.958;8.284;2022-10-31T08:18:14;18.33;;;7.35;;
30707;SDS011;17458;48.958;8.284;2022-10-31T08:20:59;30.27;;;10.95;;
30707;SDS011;17458;48.958;8.284;2022-10-31T08:23:43;15.05;;;5.47;;
30707;SDS011;17458;48.958;8.284;2022-10-31T08:26:28;10.57;;;5.57;;
30707;SDS011;17458;48.958;8.284;2022-10-31T08:29:13;9.80;;;5.28;;
30707;SDS011;17458;48.958;8.284;2022-10-31T08:31:59;8.15;;;5.68;;
30707;SDS011;17458;48.958;8.284;2022-10-31T08:35:02;8.43;;;5.88;;
30707;SDS011;17458;48.958;8.284;2022-10-31T08:38:05;13.38;;;5.10;;
30707;SDS011;17458;48.958;8.284;2022-10-31T08:40:49;11.63;;;5.68;;
30707;SDS011;17458;48.958;8.284;2022-10-31T08:43:33;10.07;;;5.20;;
30707;SDS011;17458;48.958;8.284;2022-10-31T08:46:17;15.50;;;5.82;;
30707;SDS011;17458;48.958;8.284;2022-10-31T08:49:02;9.13;;;5.25;;
30707;SDS011;17458;48.958;8.284;2022-10-31T08:51:49;10.13;;;5.20;;
30707;SDS011;17458;48.958;8.284;2022-10-31T08:54:34;13.85;;;5.43;;
30707;SDS011;17458;48.958;8.284;2022-10-31T08:57:37;9.75;;;5.85;;
30707;SDS011;17458;48.958;8.284;2022-10-31T09:00:21;8.23;;;4.90;;
30707;SDS011;17458;48.958;8.284;2022-10-31T09:03:23;13.25;;;4.70;;
30707;SDS011;17458;48.958;8.284;2022-10-31T09:06:10;10.90;;;6.30;;
30707;SDS011;17458;48.958;8.284;2022-10-31T09:08:54;9.43;;;5.15;;
30707;SDS011;17458;48.958;8.284;2022-10-31T09:11:41;9.98;;;4.80;;
30707;SDS011;17458;48.958;8.284;2022-10-31T09:14:28;10.68;;;5.70;;
30707;SDS011;17458;48.958;8.284;2022-10-31T09:17:33;14.63;;;5.50;;
30707;SDS011;17458;48.958;8.284;2022-10-31T09:20:38;10.13;;;5.13;;
30707;SDS011;17458;48.958;8.284;2022-10-31T09:23:24;10.38;;;4.78;;
30707;SDS011;17458;48.958;8.284;2022-10-31T09:26:09;10.68;;;4.45;;
30707;SDS011;17458;48.958;8.284;2022-10-31T09:28:55;6.13;;;4.53;;
30707;SDS011;17458;48.958;8.284;2022-10-31T09:31:41;13.18;;;5.50;;
30707;SDS011;17458;48.958;8.284;2022-10-31T09:34:43;14.55;;;4.40;;
30707;SDS011;17458;48.958;8.284;2022-10-31T09:37:29;9.80;;;4.70;;
30707;SDS011;17458;48.958;8.284;2022-10-31T09:40:13;11.20;;;5.35;;
30707;SDS011;17458;48.958;8.284;2022-10-31T09:46:06;6.53;;;4.07;;
30707;SDS011;17458;48.958;8.284;2022-10-31T09:52:11;15.52;;;4.82;;
30707;SDS011;17458;48.958;8.284;2022-10-31T09:55:04;16.70;;;4.75;;
30707;SDS011;17458;48.958;8.284;2022-10-31T09:57:58;12.20;;;4.93;;
30707;SDS011;17458;48.958;8.284;2022-10-31T10:00:44;5.35;;;4.18;;
30707;SDS011;17458;48.958;8.284;2022-10-31T10:03:41;13.23;;;5.07;;
30707;SDS011;17458;48.958;8.284;2022-10-31T10:06:58;16.55;;;5.22;;
30707;SDS011;17458;48.958;8.284;2022-10-31T10:10:22;15.60;;;5.22;;
30707;SDS011;17458;48.958;8.284;2022-10-31T10:13:49;9.32;;;5.28;;
30707;SDS011;17458;48.958;8.284;2022-10-31T10:17:06;11.07;;;4.50;;
30707;SDS011;17458;48.958;8.284;2022-10-31T10:23:23;12.98;;;5.05;;
30707;SDS011;17458;48.958;8.284;2022-10-31T10:29:27;15.35;;;4.57;;
30707;SDS011;17458;48.958;8.284;2022-10-31T10:32:25;8.80;;;3.88;;
30707;SDS011;17458;48.958;8.284;2022-10-31T10:35:30;17.50;;;4.38;;
30707;SDS011;17458;48.958;8.284;2022-10-31T10:38:24;7.85;;;4.63;;
30707;SDS011;17458;48.958;8.284;2022-10-31T10:41:14;13.80;;;5.20;;
30707;SDS011;17458;48.958;8.284;2022-10-31T10:44:01;12.27;;;5.10;;
30707;SDS011;17458;48.958;8.284;2022-10-31T10:46:51;7.68;;;4.53;;
30707;SDS011;17458;48.958;8.284;2022-10-31T10:50:02;9.75;;;5.60;;
30707;SDS011;17458;48.958;8.284;2022-10-31T10:53:09;16.13;;;5.10;;
30707;SDS011;17458;48.958;8.284;2022-10-31T10:56:16;17.60;;;6.78;;
30707;SDS011;17458;48.958;8.284;2022-10-31T10:59:18;9.43;;;5.07;;
30707;SDS011;17458;48.958;8.284;2022-10-31T11:02:13;13.68;;;5.72;;
30707;SDS011;17458;48.958;8.284;2022-10-31T11:05:06;10.80;;;4.07;;
30707;SDS011;17458;48.958;8.284;2022-10-31T11:08:02;7.18;;;4.93;;
30707;SDS011;17458;48.958;8.284;2022-10-31T11:10:55;5.82;;;4.25;;
30707;SDS011;17458;48.958;8.284;2022-10-31T11:14:02;13.48;;;7.03;;
30707;SDS011;17458;48.958;8.284;2022-10-31T11:16:50;9.15;;;4.80;;
30707;SDS011;17458;48.958;8.284;2022-10-31T11:19:38;11.25;;;4.22;;
30707;SDS011;17458;48.958;8.284;2022-10-31T11:22:22;13.68;;;4.88;;
30707;SDS011;17458;48.958;8.284;2022-10-31T11:28:12;17.27;;;5.07;;
30707;SDS011;17458;48.958;8.284;2022-10-31T11:31:01;6.25;;;3.95;;
30707;SDS011;17458;48.958;8.284;2022-10-31T11:34:03;11.70;;;5.30;;
30707;SDS011;17458;48.958;8.284;2022-10-31T11:36:50;8.85;;;4.50;;
30707;SDS011;17458;48.958;8.284;2022-10-31T11:39:34;11.88;;;4.88;;
30707;SDS011;17458;48.958;8.284;2022-10-31T11:42:40;11.07;;;5.25;;
30707;SDS011;17458;48.958;8.284;2022-10-31T11:45:30;11.60;;;4.72;;
30707;SDS011;17458;48.958;8.284;2022-10-31T11:48:21;10.43;;;4.70;;
30707;SDS011;17458;48.958;8.284;2022-10-31T11:51:07;14.38;;;6.03;;
30707;SDS011;17458;48.958;8.284;2022-10-31T11:53:53;10.65;;;4.80;;
30707;SDS011;17458;48.958;8.284;2022-10-31T11:56:40;11.43;;;6.65;;
30707;SDS011;17458;48.958;8.284;2022-10-31T11:59:29;9.30;;;4.78;;
30707;SDS011;17458;48.958;8.284;2022-10-31T12:02:16;8.13;;;4.68;;
30707;SDS011;17458;48.958;8.284;2022-10-31T12:05:04;11.32;;;4.97;;
30707;SDS011;17458;48.958;8.284;2022-10-31T12:07:54;10.68;;;4.55;;
30707;SDS011;17458;48.958;8.284;2022-10-31T12:11:24;10.02;;;4.90;;
30707;SDS011;17458;48.958;8.284;2022-10-31T12:17:13;11.23;;;4.90;;
30707;SDS011;17458;48.958;8.284;2022-10-31T12:20:12;10.35;;;4.65;;
30707;SDS011;17458;48.958;8.284;2022-10-31T12:26:25;17.48;;;5.00;;
30707;SDS011;17458;48.958;8.284;2022-10-31T12:38:25;15.55;;;5.75;;
30707;SDS011;17458;48.958;8.284;2022-10-31T12:41:31;8.88;;;4.53;;
30707;SDS011;17458;48.958;8.284;2022-10-31T12:47:44;11.90;;;4.82;;
30707;SDS011;17458;48.958;8.284;2022-10-31T12:53:56;11.38;;;4.80;;
30707;SDS011;17458;48.958;8.284;2022-10-31T12:56:56;15.70;;;5.00;;
30707;SDS011;17458;48.958;8.284;2022-10-31T13:02:54;19.55;;;5.78;;
30707;SDS011;17458;48.958;8.284;2022-10-31T13:05:44;9.63;;;4.80;;
30707;SDS011;17458;48.958;8.284;2022-10-31T13:08:38;9.52;;;4.68;;
30707;SDS011;17458;48.958;8.284;2022-10-31T13:11:39;14.05;;;6.13;;
30707;SDS011;17458;48.958;8.284;2022-10-31T13:14:33;12.30;;;5.50;;
30707;SDS011;17458;48.958;8.284;2022-10-31T13:17:31;16.35;;;5.88;;
30707;SDS011;17458;48.958;8.284;2022-10-31T13:20:30;9.90;;;5.40;;
30707;SDS011;17458;48.958;8.284;2022-10-31T13:23:31;20.15;;;5.25;;
30707;SDS011;17458;48.958;8.284;2022-10-31T13:26:26;16.80;;;5.13;;
30707;SDS011;17458;48.958;8.284;2022-10-31T13:32:53;10.82;;;4.88;;
30707;SDS011;17458;48.958;8.284;2022-10-31T13:35:49;12.63;;;4.97;;
30707;SDS011;17458;48.958;8.284;2022-10-31T13:38:45;18.13;;;5.47;;
30707;SDS011;17458;48.958;8.284;2022-10-31T13:44:45;9.35;;;5.40;;
30707;SDS011;17458;48.958;8.284;2022-10-31T13:47:29;11.05;;;4.97;;
30707;SDS011;17458;48.958;8.284;2022-10-31T13:50:24;11.88;;;5.80;;
30707;SDS011;17458;48.958;8.284;2022-10-31T13:53:11;15.18;;;4.25;;
30707;SDS011;17458;48.958;8.284;2022-10-31T13:56:03;18.35;;;5.13;;
30707;SDS011;17458;48.958;8.284;2022-10-31T14:01:47;11.82;;;4.78;;
30707;SDS011;17458;48.958;8.284;2022-10-31T14:04:55;8.68;;;5.72;;
30707;SDS011;17458;48.958;8.284;2022-10-31T14:07:43;12.50;;;4.97;;
30707;SDS011;17458;48.958;8.284;2022-10-31T14:10:29;11.20;;;4.85;;
30707;SDS011;17458;48.958;8.284;2022-10-31T14:16:28;15.35;;;5.82;;
30707;SDS011;17458;48.958;8.284;2022-10-31T14:19:17;13.27;;;4.72;;
30707;SDS011;17458;48.958;8.284;2022-10-31T14:22:03;13.13;;;4.70;;
30707;SDS011;17458;48.958;8.284;2022-10-31T14:24:47;17.75;;;4.55;;
30707;SDS011;17458;48.958;8.284;2022-10-31T14:27:33;16.15;;;4.57;;
30707;SDS011;17458;48.958;8.284;2022-10-31T14:30:28;12.95;;;4.03;;
30707;SDS011;17458;48.958;8.284;2022-10-31T14:33:18;10.95;;;4.75;;
30707;SDS011;17458;48.958;8.284;2022-10-31T14:36:11;7.03;;;4.97;;
30707;SDS011;17458;48.958;8.284;2022-10-31T14:39:24;12.63;;;4.75;;
30707;SDS011;17458;48.958;8.284;2022-10-31T14:52:13;11.68;;;4.93;;
30707;SDS011;17458;48.958;8.284;2022-10-31T14:54:58;8.57;;;4.78;;
30707;SDS011;17458;48.958;8.284;2022-10-31T14:57:52;12.15;;;4.78;;
30707;SDS011;17458;48.958;8.284;2022-10-31T15:00:39;15.68;;;4.93;;
30707;SDS011;17458;48.958;8.284;2022-10-31T15:03:29;8.80;;;4.72;;
30707;SDS011;17458;48.958;8.284;2022-10-31T15:06:18;8.55;;;4.85;;
30707;SDS011;17458;48.958;8.284;2022-10-31T15:09:05;11.65;;;5.68;;
30707;SDS011;17458;48.958;8.284;2022-10-31T15:11:49;15.00;;;7.18;;
30707;SDS011;17458;48.958;8.284;2022-10-31T15:14:33;9.68;;;4.72;;
30707;SDS011;17458;48.958;8.284;2022-10-31T15:17:18;10.73;;;5.65;;
30707;SDS011;17458;48.958;8.284;2022-10-31T15:20:03;15.10;;;6.10;;
30707;SDS011;17458;48.958;8.284;2022-10-31T15:22:48;13.65;;;6.00;;
30707;SDS011;17458;48.958;8.284;2022-10-31T15:25:33;17.88;;;5.25;;
30707;SDS011;17458;48.958;8.284;2022-10-31T15:28:23;16.35;;;5.63;;
30707;SDS011;17458;48.958;8.284;2022-10-31T15:31:15;12.90;;;5.22;;
30707;SDS011;17458;48.958;8.284;2022-10-31T15:34:02;12.10;;;4.80;;
30707;SDS011;17458;48.958;8.284;2022-10-31T15:36:51;6.90;;;4.75;;
30707;SDS011;17458;48.958;8.284;2022-10-31T15:39:35;14.20;;;5.10;;
30707;SDS011;17458;48.958;8.284;2022-10-31T15:42:20;13.02;;;4.55;;
30707;SDS011;17458;48.958;8.284;2022-10-31T15:47:54;13.07;;;6.22;;
30707;SDS011;17458;48.958;8.284;2022-10-31T15:50:47;8.75;;;4.75;;
30707;SDS011;17458;48.958;8.284;2022-10-31T15:53:48;7.07;;;5.55;;
30707;SDS011;17458;48.958;8.284;2022-10-31T15:56:35;18.05;;;5.70;;
30707;SDS011;17458;48.958;8.284;2022-10-31T15:59:21;13.82;;;7.60;;
30707;SDS011;17458;48.958;8.284;2022-10-31T16:02:10;8.05;;;4.70;;
30707;SDS011;17458;48.958;8.284;2022-10-31T16:04:57;18.00;;;5.10;;
30707;SDS011;17458;48.958;8.284;2022-10-31T16:07:49;11.20;;;4.82;;
30707;SDS011;17458;48.958;8.284;2022-10-31T16:10:34;14.07;;;5.15;;
30707;SDS011;17458;48.958;8.284;2022-10-31T16:13:28;10.00;;;5.03;;
30707;SDS011;17458;48.958;8.284;2022-10-31T16:16:15;17.10;;;6.45;;
30707;SDS011;17458;48.958;8.284;2022-10-31T16:19:01;23.92;;;11.20;;
30707;SDS011;17458;48.958;8.284;2022-10-31T16:21:48;13.98;;;7.70;;
30707;SDS011;17458;48.958;8.284;2022-10-31T16:24:42;11.07;;;5.97;;
30707;SDS011;17458;48.958;8.284;2022-10-31T16:27:39;13.52;;;7.45;;
30707;SDS011;17458;48.958;8.284;2022-10-31T16:30:41;18.30;;;7.63;;
30707;SDS011;17458;48.958;8.284;2022-10-31T16:33:30;17.90;;;6.88;;
30707;SDS011;17458;48.958;8.284;2022-10-31T16:36:30;12.77;;;6.43;;
30707;SDS011;17458;48.958;8.284;2022-10-31T16:39:15;12.27;;;6.75;;
30707;SDS011;17458;48.958;8.284;2022-10-31T16:42:00;12.23;;;6.50;;
30707;SDS011;17458;48.958;8.284;2022-10-31T16:44:44;19.83;;;6.90;;
30707;SDS011;17458;48.958;8.284;2022-10-31T16:47:31;15.57;;;7.68;;
30707;SDS011;17458;48.958;8.284;2022-10-31T16:50:16;19.75;;;7.95;;
30707;SDS011;17458;48.958;8.284;2022-10-31T16:53:03;14.35;;;6.93;;
30707;SDS011;17458;48.958;8.284;2022-10-31T16:55:56;20.30;;;10.70;;
30707;SDS011;17458;48.958;8.284;2022-10-31T16:58:42;22.30;;;6.70;;
30707;SDS011;17458;48.958;8.284;2022-10-31T17:01:26;13.98;;;7.13;;
30707;SDS011;17458;48.958;8.284;2022-10-31T17:04:12;17.10;;;8.48;;
30707;SDS011;17458;48.958;8.284;2022-10-31T17:06:58;13.60;;;6.38;;
30707;SDS011;17458;48.958;8.284;2022-10-31T17:09:41;19.73;;;6.35;;
30707;SDS011;17458;48.958;8.284;2022-10-31T17:12:25;12.38;;;5.90;;
30707;SDS011;17458;48.958;8.284;2022-10-31T17:15:35;12.13;;;6.80;;
30707;SDS011;17458;48.958;8.284;2022-10-31T17:18:18;15.85;;;8.52;;
30707;SDS011;17458;48.958;8.284;2022-10-31T17:21:03;14.45;;;6.88;;
30707;SDS011;17458;48.958;8.284;2022-10-31T17:23:49;15.07;;;9.02;;
30707;SDS011;17458;48.958;8.284;2022-10-31T17:26:34;13.68;;;7.18;;
30707;SDS011;17458;48.958;8.284;2022-10-31T17:29:17;15.45;;;7.38;;
30707;SDS011;17458;48.958;8.284;2022-10-31T17:32:02;13.93;;;7.65;;
30707;SDS011;17458;48.958;8.284;2022-10-31T17:34:46;13.60;;;7.00;;
30707;SDS011;17458;48.958;8.284;2022-10-31T17:37:30;13.77;;;8.32;;
30707;SDS011;17458;48.958;8.284;2022-10-31T17:40:15;15.13;;;9.05;;
30707;SDS011;17458;48.958;8.284;2022-10-31T17:43:01;16.60;;;8.20;;
30707;SDS011;17458;48.958;8.284;2022-10-31T17:45:46;15.75;;;8.05;;
30707;SDS011;17458;48.958;8.284;2022-10-31T17:48:29;14.27;;;8.75;;
30707;SDS011;17458;48.958;8.284;2022-10-31T17:51:14;19.08;;;7.65;;
30707;SDS011;17458;48.958;8.284;2022-10-31T17:53:58;17.30;;;7.55;;
30707;SDS011;17458;48.958;8.284;2022-10-31T17:56:42;10.80;;;6.68;;
30707;SDS011;17458;48.958;8.284;2022-10-31T17:59:26;9.35;;;5.88;;
30707;SDS011;17458;48.958;8.284;2022-10-31T18:02:12;16.15;;;7.68;;
30707;SDS011;17458;48.958;8.284;2022-10-31T18:04:56;14.77;;;9.77;;
30707;SDS011;17458;48.958;8.284;2022-10-31T18:07:40;23.02;;;9.68;;
30707;SDS011;17458;48.958;8.284;2022-10-31T18:10:25;12.27;;;8.55;;
30707;SDS011;17458;48.958;8.284;2022-10-31T18:13:09;12.15;;;8.00;;
30707;SDS011;17458;48.958;8.284;2022-10-31T18:15:53;14.27;;;7.03;;
30707;SDS011;17458;48.958;8.284;2022-10-31T18:18:38;13.05;;;7.18;;
30707;SDS011;17458;48.958;8.284;2022-10-31T18:21:22;10.98;;;7.25;;
30707;SDS011;17458;48.958;8.284;2022-10-31T18:24:07;11.77;;;7.25;;
30707;SDS011;17458;48.958;8.284;2022-10-31T18:26:52;14.02;;;7.40;;
30707;SDS011;17458;48.958;8.284;2022-10-31T18:29:36;14.35;;;7.63;;
30707;SDS011;17458;48.958;8.284;2022-10-31T18:32:20;14.68;;;6.63;;
30707;SDS011;17458;48.958;8.284;2022-10-31T18:35:04;15.55;;;7.03;;
30707;SDS011;17458;48.958;8.284;2022-10-31T18:37:49;17.40;;;9.35;;